Cape Flattery, Washington
Current Conditions -  °F | °C
As of 2:46 PM on Monday 20 Oct 2014 (Local Time) from KUIL Reporting Station
Light Rain Light Rain  
Wind Chill: 14°   Ceiling: 3700
Heat Index: 14°   Visibility: 1.7mi
Dew Point: 12°   Wind: 10mph
Humidity: 84%   Direction: 150°SSE
Pressure: 29.71"   Gusts: NA
Location:  48.3685°N, 124.623°W
Report Text: KUIL 202146Z AUTO 15009KT 1 3/4SM -RA FEW017 BKN037 OVC048 14/12 A2971 RMK AO2 RAB05E15B45 P0000 T01440117
Loading
Personal Weather Stations






























Interactive Weather Map
Tropical Storm Tracking
New forecast layout! Learn more

10-Day Weather Forecast

Advertisements
Track Severe Weather on mobile